Time;durP1;ratioP1;P1;durP2;ratioP2;P2;SDS_P1;SDS_P2;PMS_P1;PMS_P2;Temp;Humidity;BMP_temperature;BMP_pressure;BME280_temperature;BME280_humidity;BME280_pressure;Samples;Min_cycle;Max_cycle;Signal;HPM_P1;HPM_P2
2023/03/08 00:01:44;;;;;;;7.53;5.40;;;;;;;4.42;nan;96763.06;5053113;28;20220;-74
2023/03/08 00:04:11;;;;;;;9.73;4.87;;;;;;;4.49;nan;96773.56;5053166;28;20201;-74
2023/03/08 00:06:37;;;;;;;7.80;5.10;;;;;;;4.47;nan;96775.63;5052896;28;20205;-74
2023/03/08 00:09:03;;;;;;;5.63;4.57;;;;;;;4.40;nan;96764.31;5053170;28;20315;-74
2023/03/08 00:11:30;;;;;;;7.47;5.47;;;;;;;4.43;nan;96769.16;5052756;28;20209;-74
2023/03/08 00:13:57;;;;;;;8.40;5.70;;;;;;;4.38;nan;96767.16;5053018;28;20205;-74
2023/03/08 00:16:24;;;;;;;7.10;4.97;;;;;;;4.43;nan;96779.69;5052905;28;20216;-74
2023/03/08 00:18:50;;;;;;;7.20;5.40;;;;;;;4.44;nan;96771.56;5052696;28;20687;-74
2023/03/08 00:21:18;;;;;;;7.60;5.33;;;;;;;4.47;nan;96767.72;5052711;28;20594;-74
2023/03/08 00:23:45;;;;;;;9.20;6.07;;;;;;;4.46;nan;96766.91;5052929;28;20240;-74
2023/03/08 00:26:12;;;;;;;5.80;4.90;;;;;;;4.47;nan;96765.88;5052939;28;20206;-74
2023/03/08 00:28:39;;;;;;;7.80;5.77;;;;;;;4.45;nan;96767.09;5052858;28;20239;-74
2023/03/08 00:31:08;;;;;;;7.33;5.60;;;;;;;4.48;nan;96761.44;5052930;28;20205;-74
2023/03/08 00:33:36;;;;;;;7.70;5.40;;;;;;;4.48;nan;96771.97;5052858;28;20229;-74
2023/03/08 00:36:05;;;;;;;10.23;5.63;;;;;;;4.46;nan;96773.97;5052730;28;20228;-74
2023/03/08 00:38:35;;;;;;;6.83;5.07;;;;;;;4.46;nan;96785.31;5052560;28;20580;-74
2023/03/08 00:41:01;;;;;;;6.60;5.37;;;;;;;4.42;nan;96794.66;5052884;28;20209;-74
2023/03/08 00:43:28;;;;;;;9.10;5.30;;;;;;;4.49;nan;96792.81;5056072;28;20225;-73
2023/03/08 00:45:54;;;;;;;7.57;5.37;;;;;;;4.48;nan;96787.75;5056096;28;20205;-74
2023/03/08 00:48:21;;;;;;;6.83;5.80;;;;;;;4.48;nan;96778.00;5056346;28;20205;-74
2023/03/08 00:50:48;;;;;;;8.73;6.03;;;;;;;4.42;nan;96783.31;5056347;28;20227;-74
2023/03/08 00:53:14;;;;;;;9.20;6.20;;;;;;;4.47;nan;96771.13;5056219;28;20229;-74
2023/03/08 00:55:55;;;;;;;8.03;5.67;;;;;;;4.49;nan;96755.97;5055831;28;20714;-74
2023/03/08 00:58:25;;;;;;;8.57;5.67;;;;;;;4.50;nan;96760.19;5056139;28;20235;-74
2023/03/08 01:00:52;;;;;;;10.40;6.40;;;;;;;4.45;nan;96749.50;5056130;28;20216;-74
2023/03/08 01:03:20;;;;;;;8.53;6.13;;;;;;;4.46;nan;96740.59;5055720;28;20731;-74
2023/03/08 01:05:50;;;;;;;9.87;5.87;;;;;;;4.44;nan;96734.72;5055721;28;20213;-74
2023/03/08 01:08:18;;;;;;;7.07;6.10;;;;;;;4.35;nan;96732.56;5055622;28;20206;-74
2023/03/08 01:10:53;;;;;;;8.30;6.23;;;;;;;4.28;nan;96729.16;5055590;28;20216;-74
2023/03/08 01:13:20;;;;;;;9.33;6.57;;;;;;;4.19;nan;96725.16;5055776;28;20232;-74
2023/03/08 01:15:47;;;;;;;7.27;6.03;;;;;;;4.10;nan;96727.25;5055643;28;20225;-73
2023/03/08 01:18:13;;;;;;;7.23;5.57;;;;;;;4.11;nan;96722.81;5055833;28;20217;-74
2023/03/08 01:20:40;;;;;;;10.20;6.73;;;;;;;4.03;nan;96725.69;5055740;28;20552;-73
2023/03/08 01:23:06;;;;;;;8.93;6.03;;;;;;;4.05;nan;96716.56;5055671;28;20232;-73
2023/03/08 01:25:33;;;;;;;8.50;6.37;;;;;;;4.03;nan;96723.03;5055369;28;20208;-74
2023/03/08 01:27:59;;;;;;;8.93;6.37;;;;;;;3.99;nan;96719.22;5055529;28;20292;-74
2023/03/08 01:30:26;;;;;;;11.77;6.77;;;;;;;3.87;nan;96710.38;5055864;28;20205;-74
2023/03/08 01:32:52;;;;;;;9.47;6.33;;;;;;;3.84;nan;96703.72;5055979;28;20229;-74
2023/03/08 01:35:19;;;;;;;10.73;6.97;;;;;;;3.81;nan;96695.44;5055162;28;20692;-73
2023/03/08 01:37:45;;;;;;;10.53;6.67;;;;;;;3.73;nan;96695.69;5055429;28;20201;-74
2023/03/08 01:40:15;;;;;;;9.00;7.57;;;;;;;3.80;nan;96704.34;5055421;28;20551;-74
2023/03/08 01:42:42;;;;;;;9.90;7.20;;;;;;;3.70;nan;96688.22;5054962;28;20734;-74
2023/03/08 01:45:47;;;;;;;11.90;7.23;;;;;;;3.65;nan;96680.16;5055303;28;20197;-74
2023/03/08 01:48:15;;;;;;;10.00;7.53;;;;;;;3.57;nan;96677.78;5054868;28;20206;-74
2023/03/08 01:50:44;;;;;;;9.10;6.83;;;;;;;3.52;nan;96675.75;5054855;28;20209;-74
2023/03/08 01:53:12;;;;;;;10.33;7.40;;;;;;;3.54;nan;96675.56;5054368;28;20233;-74
2023/03/08 01:55:38;;;;;;;11.20;7.43;;;;;;;3.52;nan;96677.59;5055022;28;20275;-74
2023/03/08 01:58:05;;;;;;;10.20;6.80;;;;;;;3.58;nan;96666.25;5054748;28;20732;-74
2023/03/08 02:00:31;;;;;;;9.67;7.30;;;;;;;3.62;nan;96672.69;5054995;28;20205;-73
2023/03/08 02:03:04;;;;;;;8.40;7.07;;;;;;;3.49;nan;96670.13;5054761;28;20308;-74
2023/03/08 02:05:31;;;;;;;11.90;7.50;;;;;;;3.42;nan;96672.78;5054549;28;20208;-74
2023/03/08 02:07:57;;;;;;;9.70;7.60;;;;;;;3.53;nan;96671.31;5055080;28;20213;-73
2023/03/08 02:10:24;;;;;;;12.27;7.30;;;;;;;3.38;nan;96663.69;5055249;28;20213;-74
2023/03/08 02:12:51;;;;;;;10.57;7.10;;;;;;;3.41;nan;96670.34;5054657;28;20232;-74
2023/03/08 02:15:20;;;;;;;10.27;7.40;;;;;;;3.39;nan;96672.38;5054431;28;20233;-74
2023/03/08 02:17:47;;;;;;;10.47;7.53;;;;;;;3.35;nan;96665.94;5054641;28;20291;-74
2023/03/08 02:20:17;;;;;;;11.97;7.50;;;;;;;3.34;nan;96673.00;5054582;28;20209;-74
2023/03/08 02:22:44;;;;;;;12.20;7.60;;;;;;;3.25;nan;96661.09;5054244;28;20236;-74
2023/03/08 02:25:15;;;;;;;10.73;7.00;;;;;;;3.35;nan;96665.94;5054535;28;20567;-74
2023/03/08 02:27:42;;;;;;;10.60;6.87;;;;;;;3.37;nan;96654.19;5054743;28;20212;-74
2023/03/08 02:30:11;;;;;;;8.23;6.87;;;;;;;3.35;nan;96647.53;5054457;28;20569;-74
2023/03/08 02:32:37;;;;;;;9.83;7.23;;;;;;;3.41;nan;96637.00;5054355;28;20594;-74
2023/03/08 02:35:04;;;;;;;9.63;7.60;;;;;;;3.45;nan;96646.09;5054293;28;20225;-74
2023/03/08 02:37:32;;;;;;;9.70;7.20;;;;;;;3.38;nan;96634.81;5054296;28;20201;-74
2023/03/08 02:39:59;;;;;;;10.43;6.93;;;;;;;3.42;nan;96640.44;5055062;28;20209;-74
2023/03/08 02:42:25;;;;;;;9.93;7.13;;;;;;;3.47;nan;96635.34;5053801;28;20232;-74
2023/03/08 02:44:51;;;;;;;9.67;7.43;;;;;;;3.47;nan;96625.66;5054716;28;20209;-74
2023/03/08 02:47:18;;;;;;;9.40;7.13;;;;;;;3.52;nan;96628.47;5053925;28;20689;-74
2023/03/08 02:49:44;;;;;;;12.10;7.10;;;;;;;3.45;nan;96621.63;5054114;28;20209;-74
2023/03/08 02:52:10;;;;;;;12.87;6.97;;;;;;;3.47;nan;96612.53;5054008;28;20235;-74
2023/03/08 02:54:37;;;;;;;9.73;7.07;;;;;;;3.48;nan;96611.50;5053998;28;20205;-74
2023/03/08 02:57:03;;;;;;;10.40;7.20;;;;;;;3.43;nan;96621.84;5053883;28;20312;-74
2023/03/08 02:59:30;;;;;;;8.63;7.00;;;;;;;3.46;nan;96616.19;5053893;28;20209;-74
2023/03/08 03:01:57;;;;;;;13.13;7.83;;;;;;;3.52;nan;96623.22;5053834;28;20283;-74
2023/03/08 03:04:23;;;;;;;8.43;7.07;;;;;;;3.43;nan;96606.09;5053153;28;20209;-74
2023/03/08 03:06:49;;;;;;;9.97;6.70;;;;;;;3.54;nan;96604.63;5053537;28;20549;-74
2023/03/08 03:09:16;;;;;;;11.07;7.57;;;;;;;3.58;nan;96597.94;5053775;28;20568;-74
2023/03/08 03:11:42;;;;;;;10.73;6.97;;;;;;;3.56;nan;96587.63;5053648;28;20212;-74
2023/03/08 03:14:09;;;;;;;8.83;6.80;;;;;;;3.57;nan;96583.97;5053344;28;20210;-74
2023/03/08 03:16:36;;;;;;;8.63;6.57;;;;;;;3.61;nan;96573.88;5053134;28;20236;-73
2023/03/08 03:19:03;;;;;;;8.53;6.60;;;;;;;3.63;nan;96567.38;5053545;28;20209;-74
2023/03/08 03:21:29;;;;;;;13.10;7.50;;;;;;;3.65;nan;96560.09;5053418;28;20205;-74
2023/03/08 03:23:56;;;;;;;10.30;6.93;;;;;;;3.60;nan;96545.97;5053172;28;20210;-74
2023/03/08 03:26:23;;;;;;;12.77;7.00;;;;;;;3.56;nan;96550.03;5053376;28;20209;-74
2023/03/08 03:28:51;;;;;;;9.23;6.43;;;;;;;3.57;nan;96546.41;5053470;28;20205;-74
2023/03/08 03:31:20;;;;;;;9.77;6.73;;;;;;;3.56;nan;96544.78;5053448;28;20201;-74
2023/03/08 03:33:47;;;;;;;8.77;6.57;;;;;;;3.59;nan;96545.19;5053334;28;20244;-74
2023/03/08 03:36:16;;;;;;;11.77;7.13;;;;;;;3.56;nan;96540.34;5053533;28;20221;-74
2023/03/08 03:38:44;;;;;;;10.03;6.87;;;;;;;3.55;nan;96543.16;5053424;28;20292;-74
2023/03/08 03:41:17;;;;;;;9.93;7.10;;;;;;;3.53;nan;96534.72;5053042;28;20664;-74
2023/03/08 03:43:43;;;;;;;10.87;6.77;;;;;;;3.56;nan;96542.16;5053077;28;20295;-74
2023/03/08 03:46:16;;;;;;;8.90;6.47;;;;;;;3.50;nan;96525.44;5053220;28;20300;-74
2023/03/08 03:48:43;;;;;;;10.50;7.20;;;;;;;3.53;nan;96538.13;5052996;28;20205;-74
2023/03/08 03:51:12;;;;;;;8.97;6.63;;;;;;;3.49;nan;96530.91;5053448;28;20201;-74
2023/03/08 03:53:38;;;;;;;9.57;6.50;;;;;;;3.41;nan;96524.06;5053161;28;20228;-74
2023/03/08 03:56:14;;;;;;;9.27;6.27;;;;;;;3.35;nan;96527.53;5053219;28;20229;-74
2023/03/08 03:58:41;;;;;;;10.80;7.17;;;;;;;3.32;nan;96517.47;5053787;28;20199;-74
2023/03/08 04:01:14;;;;;;;9.10;7.00;;;;;;;3.26;nan;96533.25;5053057;28;20216;-74
2023/03/08 04:03:40;;;;;;;11.00;6.87;;;;;;;3.29;nan;96524.97;5053377;28;20576;-74
2023/03/08 04:06:19;;;;;;;10.27;7.07;;;;;;;3.32;nan;96520.09;5052973;28;20201;-74
2023/03/08 04:08:46;;;;;;;9.20;6.70;;;;;;;3.32;nan;96520.09;5052713;28;20703;-74
2023/03/08 04:11:15;;;;;;;10.57;7.10;;;;;;;3.42;nan;96515.16;5052979;28;20209;-74
2023/03/08 04:13:42;;;;;;;9.70;7.10;;;;;;;3.42;nan;96507.28;5052893;28;20279;-74
2023/03/08 04:16:29;;;;;;;10.80;7.27;;;;;;;3.44;nan;96507.88;5054012;28;20232;-73
2023/03/08 04:18:58;;;;;;;9.53;6.67;;;;;;;3.46;nan;96499.78;5056907;28;20194;-74
2023/03/08 04:21:25;;;;;;;9.10;6.73;;;;;;;3.48;nan;96493.31;5056537;28;20209;-74
2023/03/08 04:23:51;;;;;;;11.03;7.23;;;;;;;3.52;nan;96486.59;5056542;28;20230;-74
2023/03/08 04:26:18;;;;;;;8.93;6.73;;;;;;;3.52;nan;96498.97;5056451;28;20205;-73
2023/03/08 04:28:45;;;;;;;9.57;6.80;;;;;;;3.48;nan;96495.13;5056545;28;20201;-74
2023/03/08 04:31:15;;;;;;;9.07;6.60;;;;;;;3.51;nan;96492.06;5056517;28;20217;-74
2023/03/08 04:33:42;;;;;;;7.47;6.20;;;;;;;3.50;nan;96496.53;5056020;28;20629;-74
2023/03/08 04:36:10;;;;;;;9.53;6.93;;;;;;;3.60;nan;96511.81;5056415;28;20224;-74
2023/03/08 04:38:36;;;;;;;10.23;7.17;;;;;;;3.62;nan;96517.69;5056289;28;20630;-74
2023/03/08 04:41:04;;;;;;;9.77;6.93;;;;;;;3.54;nan;96502.16;5056263;28;20207;-74
2023/03/08 04:43:34;;;;;;;9.53;6.90;;;;;;;3.59;nan;96486.56;5056129;28;20233;-74
2023/03/08 04:46:01;;;;;;;8.93;6.73;;;;;;;3.64;nan;96473.59;5055891;28;20657;-74
2023/03/08 04:48:28;;;;;;;9.03;7.10;;;;;;;3.55;nan;96465.19;5056141;28;20212;-74
2023/03/08 04:50:56;;;;;;;10.30;6.60;;;;;;;3.53;nan;96469.81;5055857;28;20216;-74
2023/03/08 04:53:23;;;;;;;8.13;5.97;;;;;;;3.53;nan;96456.69;5055385;28;20280;-74
2023/03/08 04:55:50;;;;;;;10.00;7.37;;;;;;;3.66;nan;96455.81;5055799;28;20231;-74
2023/03/08 04:58:17;;;;;;;8.90;6.77;;;;;;;3.63;nan;96464.91;5056301;28;20212;-74
2023/03/08 05:00:43;;;;;;;9.17;6.27;;;;;;;3.57;nan;96457.88;5055946;28;20209;-74
2023/03/08 05:03:11;;;;;;;9.43;7.00;;;;;;;3.69;nan;96440.41;5055422;28;20229;-74
2023/03/08 05:05:37;;;;;;;10.03;7.23;;;;;;;3.66;nan;96440.03;5055455;28;20209;-74
2023/03/08 05:08:04;;;;;;;9.93;7.20;;;;;;;3.66;nan;96442.66;5055266;28;20218;-74
2023/03/08 05:10:33;;;;;;;9.30;6.77;;;;;;;3.76;nan;96428.00;5055829;28;20237;-74
2023/03/08 05:13:00;;;;;;;8.90;6.80;;;;;;;3.73;nan;96435.50;5055734;28;20225;-74
2023/03/08 05:15:26;;;;;;;8.90;6.90;;;;;;;3.74;nan;96426.59;5055366;28;20228;-74
2023/03/08 05:17:52;;;;;;;9.40;6.77;;;;;;;3.68;nan;96423.03;5055625;28;20208;-74
2023/03/08 05:20:19;;;;;;;10.47;7.77;;;;;;;3.67;nan;96434.53;5055179;28;20205;-74
2023/03/08 05:22:45;;;;;;;10.03;7.03;;;;;;;3.76;nan;96438.50;5055458;28;20229;-74
2023/03/08 05:25:12;;;;;;;11.33;6.97;;;;;;;3.79;nan;96435.47;5055270;28;20296;-74
2023/03/08 05:27:38;;;;;;;10.30;7.50;;;;;;;3.80;nan;96436.28;5054226;28;20205;-74
2023/03/08 05:30:05;;;;;;;11.40;7.90;;;;;;;3.77;nan;96426.19;5055458;28;20205;-74
2023/03/08 05:32:32;;;;;;;13.07;7.77;;;;;;;3.86;nan;96417.81;5056109;28;20229;-74
2023/03/08 05:34:58;;;;;;;11.13;7.80;;;;;;;4.02;nan;96421.72;5055203;28;20201;-74
2023/03/08 05:37:25;;;;;;;11.43;7.50;;;;;;;3.84;nan;96411.97;5055260;28;20229;-74
2023/03/08 05:39:52;;;;;;;13.27;7.50;;;;;;;3.85;nan;96412.78;5054737;28;20672;-74
2023/03/08 05:42:19;;;;;;;11.70;7.07;;;;;;;3.85;nan;96403.03;5054739;28;20232;-74
2023/03/08 05:44:46;;;;;;;9.83;7.93;;;;;;;3.89;nan;96395.56;5054763;28;20201;-74
2023/03/08 05:47:12;;;;;;;11.03;6.90;;;;;;;3.96;nan;96388.38;5054527;28;20669;-74
2023/03/08 05:49:39;;;;;;;13.10;8.67;;;;;;;3.93;nan;96389.63;5054937;28;20205;-74
2023/03/08 05:52:05;;;;;;;10.40;7.20;;;;;;;3.98;nan;96389.00;5054506;28;20591;-75
2023/03/08 05:54:32;;;;;;;11.63;7.87;;;;;;;4.03;nan;96389.91;5054437;28;20205;-74
2023/03/08 05:56:58;;;;;;;8.57;7.30;;;;;;;4.19;nan;96384.09;5054632;28;20228;-74
2023/03/08 05:59:25;;;;;;;11.17;7.70;;;;;;;4.08;nan;96391.91;5054285;28;20669;-74
2023/03/08 06:01:52;;;;;;;10.77;7.80;;;;;;;4.05;nan;96402.84;5054404;28;20232;-74
2023/03/08 06:04:18;;;;;;;11.67;8.30;;;;;;;4.02;nan;96398.84;5054572;28;20210;-74
2023/03/08 06:06:44;;;;;;;12.33;7.83;;;;;;;4.01;nan;96412.19;5053969;28;20201;-74
2023/03/08 06:09:11;;;;;;;13.33;7.80;;;;;;;4.06;nan;96396.56;5054874;28;20216;-74
2023/03/08 06:11:37;;;;;;;11.93;7.63;;;;;;;4.09;nan;96406.66;5054098;28;20209;-74
2023/03/08 06:14:03;;;;;;;12.43;7.57;;;;;;;4.08;nan;96403.25;5054054;28;20216;-74
2023/03/08 06:16:30;;;;;;;11.63;8.00;;;;;;;4.08;nan;96402.44;5053847;28;20231;-74
2023/03/08 06:18:56;;;;;;;11.47;8.17;;;;;;;4.14;nan;96407.63;5054199;28;20218;-74
2023/03/08 06:21:22;;;;;;;11.03;7.83;;;;;;;4.18;nan;96387.75;5054110;28;20213;-74
2023/03/08 06:23:50;;;;;;;10.63;8.03;;;;;;;4.28;nan;96388.03;5053704;28;20252;-74
2023/03/08 06:26:17;;;;;;;12.27;8.30;;;;;;;4.27;nan;96385.63;5053716;28;20277;-74
2023/03/08 06:28:43;;;;;;;11.33;8.30;;;;;;;4.31;nan;96382.34;5053389;28;20205;-74
2023/03/08 06:31:15;;;;;;;12.83;8.43;;;;;;;4.33;nan;96376.84;5055822;28;20200;-72
2023/03/08 06:33:42;;;;;;;12.23;8.10;;;;;;;4.41;nan;96371.28;5062734;28;20232;-73
2023/03/08 06:37:11;;;;;;;10.47;8.90;;;;;;;4.44;nan;96371.63;5063108;28;20216;-73
2023/03/08 06:39:37;;;;;;;15.17;8.50;;;;;;;4.43;nan;96369.25;5059342;28;20540;-73
2023/03/08 06:42:03;;;;;;;13.40;8.53;;;;;;;4.60;nan;96362.34;5071815;28;20311;-73
2023/03/08 06:44:30;;;;;;;12.20;9.97;;;;;;;4.53;nan;96354.53;5073424;28;20211;-73
2023/03/08 06:46:57;;;;;;;12.53;9.17;;;;;;;4.53;nan;96354.53;5073530;28;20215;-72
2023/03/08 06:49:23;;;;;;;12.93;8.80;;;;;;;4.50;nan;96359.44;5073283;28;20208;-73
2023/03/08 06:51:50;;;;;;;11.03;9.20;;;;;;;4.58;nan;96353.88;5073345;28;20337;-73
2023/03/08 06:54:17;;;;;;;12.97;9.43;;;;;;;4.66;nan;96348.31;5072603;28;20209;-73
2023/03/08 06:56:44;;;;;;;13.43;10.07;;;;;;;4.67;nan;96352.53;5073624;28;20225;-72
2023/03/08 06:59:12;;;;;;;12.60;8.90;;;;;;;4.67;nan;96342.81;5073325;28;20227;-73
2023/03/08 07:01:45;;;;;;;14.70;9.30;;;;;;;4.70;nan;96346.84;5072655;28;20205;-73
2023/03/08 07:04:12;;;;;;;13.23;9.47;;;;;;;4.76;nan;96344.13;5073346;28;20196;-72
2023/03/08 07:06:44;;;;;;;14.07;9.53;;;;;;;4.80;nan;96339.19;5074007;28;20208;-73
2023/03/08 07:11:57;;;;;;;14.73;10.23;;;;;;;4.83;nan;96338.72;5072298;28;20231;-73
2023/03/08 07:14:29;;;;;;;13.33;9.53;;;;;;;4.84;nan;96322.72;5072858;28;20209;-73
2023/03/08 07:19:54;;;;;;;14.40;9.90;;;;;;;4.89;nan;96324.69;5071428;28;20647;-73
2023/03/08 07:22:25;;;;;;;12.00;9.20;;;;;;;4.93;nan;96320.59;5073155;28;20234;-73
2023/03/08 07:31:15;;;;;;;16.93;10.30;;;;;;;5.12;nan;96301.03;5070841;28;20212;-73
2023/03/08 07:33:44;;;;;;;13.00;9.83;;;;;;;5.08;nan;96295.44;5072632;28;20224;-73
2023/03/08 07:36:16;;;;;;;13.93;10.20;;;;;;;4.97;nan;96295.41;5072582;28;20216;-73
2023/03/08 07:39:15;;;;;;;15.47;9.93;;;;;;;4.96;nan;96289.34;5073322;28;20216;-72
2023/03/08 07:41:56;;;;;;;13.37;9.80;;;;;;;5.09;nan;96286.50;5070677;28;20211;-73
2023/03/08 07:44:59;;;;;;;16.23;10.23;;;;;;;5.06;nan;96276.41;5072709;28;20188;-73
2023/03/08 07:47:26;;;;;;;13.70;9.70;;;;;;;5.11;nan;96273.09;5072594;28;20214;-72
2023/03/08 07:52:36;;;;;;;12.43;9.50;;;;;;;5.20;nan;96277.00;5075275;28;20232;-73
2023/03/08 07:55:02;;;;;;;13.10;8.80;;;;;;;5.13;nan;96271.84;5076833;28;20205;-73
2023/03/08 07:57:29;;;;;;;13.83;9.93;;;;;;;5.15;nan;96264.50;5077025;28;20224;-73
2023/03/08 07:59:55;;;;;;;13.33;10.03;;;;;;;5.11;nan;96257.31;5076641;28;20204;-72
2023/03/08 08:02:21;;;;;;;14.47;10.13;;;;;;;5.26;nan;96255.00;5076543;28;20231;-73
2023/03/08 08:04:49;;;;;;;12.47;9.70;;;;;;;5.21;nan;96253.03;5076713;28;20291;-73
2023/03/08 08:07:16;;;;;;;11.97;9.33;;;;;;;5.18;nan;96242.19;5076588;28;20305;-73
2023/03/08 08:09:43;;;;;;;12.73;9.03;;;;;;;5.26;nan;96234.75;5076771;28;20213;-73
2023/03/08 08:12:10;;;;;;;12.03;9.43;;;;;;;5.30;nan;96227.97;5077125;28;20319;-73
2023/03/08 08:14:36;;;;;;;13.17;9.07;;;;;;;5.43;nan;96225.09;5076492;28;20556;-74
2023/03/08 08:17:03;;;;;;;14.23;10.17;;;;;;;5.36;nan;96219.16;5076388;28;20228;-73
2023/03/08 08:19:30;;;;;;;14.10;9.20;;;;;;;5.34;nan;96215.16;5076821;28;20213;-73
2023/03/08 08:21:57;;;;;;;15.20;9.97;;;;;;;5.36;nan;96210.44;5076858;28;20715;-73
2023/03/08 08:24:23;;;;;;;13.23;9.50;;;;;;;5.35;nan;96209.66;5076314;28;20208;-73
2023/03/08 08:26:50;;;;;;;12.57;9.23;;;;;;;5.29;nan;96194.75;5076173;28;20201;-73
2023/03/08 08:29:16;;;;;;;16.20;9.47;;;;;;;5.25;nan;96184.91;5076096;28;20207;-73
2023/03/08 08:31:42;;;;;;;11.30;9.20;;;;;;;5.30;nan;96171.84;5076495;28;20204;-73
2023/03/08 08:34:09;;;;;;;10.37;8.07;;;;;;;5.23;nan;96160.63;5077063;28;20212;-73
2023/03/08 08:36:35;;;;;;;12.60;8.93;;;;;;;5.27;nan;96159.94;5076000;28;20225;-73
2023/03/08 08:39:02;;;;;;;9.73;8.60;;;;;;;5.38;nan;96156.47;5076002;28;20239;-73
2023/03/08 08:41:30;;;;;;;10.40;8.70;;;;;;;5.41;nan;96153.41;5075804;28;20200;-74
2023/03/08 08:43:58;;;;;;;9.87;8.40;;;;;;;5.29;nan;96149.19;5075853;28;20212;-72
2023/03/08 08:46:26;;;;;;;13.47;8.77;;;;;;;5.20;nan;96146.09;5076103;28;20211;-73
2023/03/08 08:48:53;;;;;;;16.53;10.00;;;;;;;5.27;nan;96140.69;5075929;28;20611;-73
2023/03/08 08:51:20;;;;;;;11.33;8.77;;;;;;;5.20;nan;96137.41;5076370;28;20208;-73
2023/03/08 08:53:46;;;;;;;11.63;9.13;;;;;;;5.20;nan;96124.25;5075573;28;20703;-72
2023/03/08 08:56:22;;;;;;;12.53;9.87;;;;;;;5.19;nan;96141.88;5076356;28;20208;-73
2023/03/08 08:58:48;;;;;;;11.40;9.33;;;;;;;5.09;nan;96107.41;5076172;28;20185;-73
2023/03/08 09:01:16;;;;;;;14.27;9.57;;;;;;;5.05;nan;96137.06;5075820;28;20232;-72
2023/03/08 09:03:43;;;;;;;13.13;9.43;;;;;;;5.17;nan;96128.13;5074809;28;20319;-73
2023/03/08 09:06:10;;;;;;;11.80;9.27;;;;;;;5.20;nan;96119.75;5075394;28;20204;-73
2023/03/08 09:08:36;;;;;;;11.03;8.37;;;;;;;5.28;nan;96123.84;5075812;28;20204;-73
2023/03/08 09:11:05;;;;;;;12.50;8.47;;;;;;;5.41;nan;96121.78;5075832;28;20208;-72
2023/03/08 09:13:31;;;;;;;12.00;8.37;;;;;;;5.37;nan;96115.38;5075522;28;20304;-72
2023/03/08 09:15:58;;;;;;;10.93;8.77;;;;;;;5.37;nan;96120.63;5075527;28;20234;-72
2023/03/08 09:18:24;;;;;;;13.77;9.00;;;;;;;5.50;nan;96112.47;5075563;28;20228;-72
2023/03/08 09:20:51;;;;;;;11.30;8.57;;;;;;;5.48;nan;96111.09;5075613;28;20208;-73
2023/03/08 09:23:18;;;;;;;12.37;9.10;;;;;;;5.44;nan;96104.69;5075109;28;20299;-72
2023/03/08 09:25:44;;;;;;;16.07;9.40;;;;;;;5.45;nan;96096.56;5075119;28;20211;-72
2023/03/08 09:28:12;;;;;;;11.90;9.33;;;;;;;5.60;nan;96096.03;5075465;28;20214;-73
2023/03/08 09:30:38;;;;;;;16.43;9.50;;;;;;;5.50;nan;96087.94;5075091;28;20208;-72
2023/03/08 09:33:05;;;;;;;13.87;9.27;;;;;;;5.51;nan;96094.81;5075234;28;20229;-72
2023/03/08 09:35:31;;;;;;;11.43;8.77;;;;;;;5.52;nan;96076.13;5075102;28;20223;-73
2023/03/08 09:38:00;;;;;;;12.97;9.83;;;;;;;5.55;nan;96090.66;5074371;28;20705;-73
2023/03/08 09:40:27;;;;;;;13.27;10.03;;;;;;;5.65;nan;96065.31;5074959;28;20213;-72
2023/03/08 09:43:03;;;;;;;13.77;10.43;;;;;;;5.68;nan;96048.22;5074553;28;20703;-72
2023/03/08 09:45:30;;;;;;;10.57;9.30;;;;;;;5.76;nan;96048.66;5075467;28;20196;-72
2023/03/08 09:48:03;;;;;;;17.07;10.90;;;;;;;5.78;nan;96056.31;5074491;28;20691;-73
2023/03/08 09:50:39;;;;;;;11.17;9.60;;;;;;;5.84;nan;96052.75;5074278;28;20632;-73
2023/03/08 09:53:14;;;;;;;12.73;9.80;;;;;;;5.87;nan;96053.09;5074554;28;20629;-73
2023/03/08 09:55:48;;;;;;;15.67;10.97;;;;;;;5.88;nan;96045.97;5074677;28;20292;-72
2023/03/08 09:58:28;;;;;;;15.87;10.03;;;;;;;6.01;nan;96048.31;5074177;28;20672;-72
2023/03/08 10:01:01;;;;;;;17.00;10.97;;;;;;;6.06;nan;96025.44;5073465;28;20192;-72
2023/03/08 10:03:54;;;;;;;12.53;10.10;;;;;;;6.12;nan;96034.25;5074034;28;20231;-72
2023/03/08 10:06:26;;;;;;;14.37;9.77;;;;;;;6.20;nan;96023.31;5055960;28;20211;-73
2023/03/08 10:09:01;;;;;;;14.37;10.60;;;;;;;6.25;nan;96026.78;5074420;28;20185;-72
2023/03/08 10:11:40;;;;;;;19.67;10.63;;;;;;;6.31;nan;96022.41;5074376;28;20192;-73
2023/03/08 10:14:18;;;;;;;13.57;9.90;;;;;;;6.26;nan;96015.22;5072849;28;20199;-72
2023/03/08 10:16:50;;;;;;;15.90;10.53;;;;;;;6.28;nan;96009.69;5073847;28;20212;-73
2023/03/08 10:19:22;;;;;;;14.53;10.33;;;;;;;6.38;nan;96010.63;5074912;28;20185;-73
2023/03/08 10:21:51;;;;;;;14.77;10.70;;;;;;;6.41;nan;96007.53;5074160;28;20225;-73
2023/03/08 10:24:29;;;;;;;13.30;9.83;;;;;;;6.48;nan;96004.72;5074182;28;20200;-73
2023/03/08 10:27:03;;;;;;;13.77;9.70;;;;;;;6.48;nan;96007.34;5073845;28;20193;-72
2023/03/08 10:29:29;;;;;;;8.83;7.53;;;;;;;6.72;nan;96001.63;5074004;28;20632;-73
2023/03/08 10:31:55;;;;;;;12.97;9.40;;;;;;;6.84;nan;96004.16;5073636;28;20583;-73
2023/03/08 10:34:29;;;;;;;9.00;7.90;;;;;;;7.10;nan;95987.56;5073506;28;20679;-72
2023/03/08 10:37:01;;;;;;;10.30;6.03;;;;;;;7.58;nan;95993.63;5073894;28;20193;-72
2023/03/08 10:39:28;;;;;;;5.57;4.50;;;;;;;8.08;nan;95983.50;5073573;28;20204;-72
2023/03/08 10:42:00;;;;;;;6.80;4.43;;;;;;;8.30;nan;95989.50;5073830;28;20232;-72
2023/03/08 10:44:29;;;;;;;4.73;4.10;;;;;;;8.53;nan;95967.94;5074097;28;20185;-72
2023/03/08 10:46:56;;;;;;;4.30;3.63;;;;;;;8.67;nan;95970.94;5073941;28;20229;-72
2023/03/08 10:49:25;;;;;;;5.20;3.40;;;;;;;8.80;nan;95973.91;5073716;28;20204;-72
2023/03/08 10:52:01;;;;;;;5.13;3.70;;;;;;;8.97;nan;95957.81;5073279;28;20228;-72
2023/03/08 10:54:28;;;;;;;4.17;3.30;;;;;;;9.13;nan;95946.22;5073296;28;20551;-72
2023/03/08 10:57:02;;;;;;;4.03;3.40;;;;;;;9.48;nan;95939.16;5073354;28;20683;-72
2023/03/08 10:59:32;;;;;;;3.47;3.10;;;;;;;9.60;nan;95944.22;5073448;28;20529;-72
2023/03/08 11:02:02;;;;;;;6.20;3.00;;;;;;;9.92;nan;95944.75;5072777;28;20228;-72
2023/03/08 11:04:30;;;;;;;3.43;2.60;;;;;;;9.99;nan;95942.63;5073325;28;20636;-73
2023/03/08 11:06:57;;;;;;;4.03;2.73;;;;;;;10.38;nan;95952.47;5073520;28;20215;-72
2023/03/08 11:09:26;;;;;;;3.63;2.70;;;;;;;10.14;nan;95945.31;5072129;28;20299;-72
2023/03/08 11:11:59;;;;;;;4.03;2.33;;;;;;;10.31;nan;95937.84;5073326;28;20231;-73
2023/03/08 11:14:28;;;;;;;4.17;2.03;;;;;;;10.44;nan;95930.13;5072916;28;20224;-73
2023/03/08 11:17:00;;;;;;;1.60;1.50;;;;;;;10.52;nan;95932.25;5072889;28;20228;-73
2023/03/08 11:19:58;;;;;;;6.27;2.10;;;;;;;10.38;nan;95936.53;5072729;28;20678;-72
2023/03/08 11:22:46;;;;;;;2.23;1.63;;;;;;;10.29;nan;95932.81;5073166;28;20255;-72
2023/03/08 11:25:22;;;;;;;3.73;1.37;;;;;;;10.47;nan;95942.06;5073092;28;20192;-72
2023/03/08 11:28:17;;;;;;;1.47;1.37;;;;;;;10.55;nan;95938.88;5073187;28;20622;-71
2023/03/08 11:31:06;;;;;;;1.10;1.00;;;;;;;10.55;nan;95941.53;5072034;28;20189;-72
2023/03/08 11:33:32;;;;;;;1.80;1.10;;;;;;;10.44;nan;95945.25;5072462;28;20233;-72
2023/03/08 11:36:06;;;;;;;1.03;0.90;;;;;;;10.46;nan;95945.81;5072896;28;20542;-72
2023/03/08 11:38:34;;;;;;;1.67;0.80;;;;;;;10.65;nan;95939.66;5073121;28;20213;-72
2023/03/08 11:41:24;;;;;;;2.10;0.90;;;;;;;10.65;nan;95944.97;5073763;28;20240;-72
2023/03/08 11:44:03;;;;;;;2.37;0.90;;;;;;;10.74;nan;95950.50;5071752;28;20228;-72
2023/03/08 11:46:41;;;;;;;0.93;0.80;;;;;;;10.90;nan;95933.44;5072981;28;20204;-72
2023/03/08 11:49:18;;;;;;;1.17;0.97;;;;;;;11.06;nan;95927.00;5071828;28;20193;-73
2023/03/08 11:52:00;;;;;;;0.73;0.70;;;;;;;10.91;nan;95932.38;5072945;28;20193;-72
2023/03/08 11:55:10;;;;;;;1.20;0.87;;;;;;;10.99;nan;95945.09;5072921;28;20655;-72
2023/03/08 11:57:43;;;;;;;0.87;0.70;;;;;;;10.93;nan;95934.78;5061473;28;20243;-72
2023/03/08 12:00:37;;;;;;;1.97;0.90;;;;;;;10.88;nan;95936.38;5073065;28;20200;-72
2023/03/08 12:03:17;;;;;;;0.87;0.87;;;;;;;10.83;nan;95941.72;5072119;28;20260;-72
2023/03/08 12:06:00;;;;;;;1.63;0.80;;;;;;;10.93;nan;95932.13;5072649;28;20186;-73
2023/03/08 12:08:36;;;;;;;0.70;0.70;;;;;;;10.84;nan;95939.84;5071656;28;20578;-72
2023/03/08 12:11:18;;;;;;;1.23;0.80;;;;;;;10.91;nan;95949.09;5072581;28;20196;-72
2023/03/08 12:13:50;;;;;;;1.67;0.80;;;;;;;10.93;nan;95942.75;5071955;28;20599;-72
2023/03/08 12:16:23;;;;;;;2.20;0.90;;;;;;;11.09;nan;95947.72;5072319;28;20220;-72
2023/03/08 12:19:21;;;;;;;1.57;1.00;;;;;;;11.12;nan;95944.50;5072423;28;20219;-72
2023/03/08 12:21:57;;;;;;;1.13;0.77;;;;;;;11.17;nan;95949.03;5072519;28;20189;-73